Time;durP1;ratioP1;P1;durP2;ratioP2;P2;SDS_P1;SDS_P2;PMS_P1;PMS_P2;Temp;Humidity;BMP_temperature;BMP_pressure;BME280_temperature;BME280_humidity;BME280_pressure;Samples;Min_cycle;Max_cycle;Signal;HPM_P1;HPM_P2
2022/08/08 00:00:08;;;;;;;2.03;1.77;;;;;;;17.14;53.69;98500.19;5069650;28;20650;-68
2022/08/08 00:02:41;;;;;;;2.20;1.43;;;;;;;17.12;53.52;98507.50;5072777;28;20246;-71
2022/08/08 00:05:17;;;;;;;2.73;1.50;;;;;;;17.22;52.25;98503.03;5072406;28;20216;-70
2022/08/08 00:07:51;;;;;;;1.40;1.30;;;;;;;17.15;52.25;98507.25;5072778;28;20207;-70
2022/08/08 00:10:25;;;;;;;1.60;1.50;;;;;;;17.04;52.85;98515.38;5072445;28;20249;-72
2022/08/08 00:13:09;;;;;;;2.07;1.43;;;;;;;17.00;52.35;98510.44;5065119;28;20218;-71
2022/08/08 00:15:40;;;;;;;1.70;1.50;;;;;;;16.85;53.83;98509.97;5072621;28;20534;-71
2022/08/08 00:18:14;;;;;;;1.40;1.30;;;;;;;16.65;54.82;98508.19;5072205;28;20245;-70
2022/08/08 00:20:44;;;;;;;2.30;1.80;;;;;;;16.44;55.81;98504.75;5064312;28;20262;-70
2022/08/08 00:23:16;;;;;;;1.37;1.20;;;;;;;16.27;56.52;98508.00;5072546;28;20207;-70
2022/08/08 00:25:49;;;;;;;1.60;1.50;;;;;;;16.06;57.07;98508.16;5071545;28;20216;-70
2022/08/08 00:28:19;;;;;;;1.37;1.27;;;;;;;15.92;57.88;98511.13;5072310;28;20212;-71
2022/08/08 00:30:52;;;;;;;1.87;1.70;;;;;;;15.77;58.66;98509.78;5072629;28;20216;-70
2022/08/08 00:33:23;;;;;;;1.70;1.43;;;;;;;15.66;59.56;98501.84;5072616;28;20219;-70
2022/08/08 00:35:57;;;;;;;1.57;1.47;;;;;;;15.51;60.15;98505.78;5072466;28;20215;-71
2022/08/08 00:38:32;;;;;;;1.70;1.47;;;;;;;15.39;61.45;98514.78;5064263;28;20245;-71
2022/08/08 00:41:44;;;;;;;1.73;1.57;;;;;;;15.26;61.71;98519.38;5071971;28;20675;-71
2022/08/08 00:44:47;;;;;;;2.33;1.33;;;;;;;15.15;62.57;98519.44;5072035;28;20257;-69
2022/08/08 00:47:49;;;;;;;2.17;1.70;;;;;;;15.08;63.70;98529.72;5069910;28;20221;-71
2022/08/08 00:50:59;;;;;;;1.30;1.20;;;;;;;15.00;64.93;98521.50;5063032;28;20211;-69
2022/08/08 00:53:54;;;;;;;1.63;1.53;;;;;;;14.98;65.00;98517.28;5063755;28;20222;-69
2022/08/08 00:57:05;;;;;;;1.50;1.40;;;;;;;15.04;65.18;98524.78;5066495;28;20216;-69
2022/08/08 01:00:08;;;;;;;1.40;1.30;;;;;;;15.14;64.74;98528.38;5068496;28;20234;-69
2022/08/08 01:03:31;;;;;;;1.83;1.50;;;;;;;15.16;64.18;98532.59;5071818;28;20699;-69
2022/08/08 01:06:28;;;;;;;3.03;1.67;;;;;;;15.21;63.47;98529.59;5048051;28;20669;-69
2022/08/08 01:09:28;;;;;;;1.70;1.60;;;;;;;15.29;63.47;98524.47;5069858;28;20238;-69
2022/08/08 01:12:23;;;;;;;2.10;1.90;;;;;;;15.40;63.16;98521.81;5068605;28;20221;-70
2022/08/08 01:15:29;;;;;;;1.77;1.60;;;;;;;15.45;63.25;98527.59;5074368;28;20222;-69
2022/08/08 01:18:46;;;;;;;1.63;1.50;;;;;;;15.49;63.13;98524.56;5050357;28;20217;-69
2022/08/08 01:21:34;;;;;;;1.73;1.60;;;;;;;15.35;64.88;98532.00;5068641;28;20296;-69
2022/08/08 01:24:25;;;;;;;2.30;1.80;;;;;;;15.16;65.99;98531.78;5075855;28;20221;-70
2022/08/08 01:27:23;;;;;;;1.90;1.70;;;;;;;15.06;66.06;98530.81;5070823;28;20212;-71
2022/08/08 01:30:26;;;;;;;1.40;1.30;;;;;;;15.04;65.91;98532.75;5069991;28;20704;-68
2022/08/08 01:33:19;;;;;;;1.50;1.40;;;;;;;14.98;66.12;98528.75;5071323;28;20211;-71
2022/08/08 01:36:17;;;;;;;1.50;1.40;;;;;;;14.90;66.08;98525.88;5070571;28;20566;-70
2022/08/08 01:39:06;;;;;;;2.00;1.40;;;;;;;14.90;65.99;98525.88;5068938;28;20300;-69
2022/08/08 01:41:45;;;;;;;1.50;1.40;;;;;;;14.94;65.92;98529.13;5069532;28;20211;-69
2022/08/08 01:44:36;;;;;;;1.63;1.53;;;;;;;14.96;65.68;98522.72;5073750;28;20215;-69
2022/08/08 01:47:13;;;;;;;1.60;1.40;;;;;;;15.02;64.55;98524.06;5075480;28;20220;-69
2022/08/08 01:49:52;;;;;;;1.43;1.33;;;;;;;15.08;63.60;98524.41;5075120;28;20211;-69
2022/08/08 01:52:44;;;;;;;1.40;1.30;;;;;;;15.15;62.70;98527.41;5074676;28;20219;-69
2022/08/08 01:55:18;;;;;;;1.53;1.30;;;;;;;15.24;61.64;98524.00;5068062;28;20222;-70
2022/08/08 01:57:53;;;;;;;1.57;1.47;;;;;;;15.30;61.55;98527.00;5074913;28;20241;-69
2022/08/08 02:00:23;;;;;;;2.27;1.40;;;;;;;15.32;61.53;98527.75;5070118;28;20238;-69
2022/08/08 02:03:19;;;;;;;1.33;1.23;;;;;;;15.31;62.36;98531.38;5075093;28;20208;-69
2022/08/08 02:05:54;;;;;;;1.37;1.20;;;;;;;15.30;62.20;98527.00;5066186;28;20227;-69
2022/08/08 02:08:31;;;;;;;1.87;1.50;;;;;;;15.29;62.93;98529.78;5074072;28;20211;-69
2022/08/08 02:11:05;;;;;;;1.57;1.47;;;;;;;15.13;63.88;98526.69;5074709;28;20668;-69
2022/08/08 02:13:37;;;;;;;1.47;1.37;;;;;;;15.02;64.49;98530.22;5074625;28;20208;-70
2022/08/08 02:16:14;;;;;;;2.70;1.40;;;;;;;14.92;64.96;98523.09;5070075;28;20299;-71
2022/08/08 02:18:46;;;;;;;1.70;1.50;;;;;;;14.88;64.65;98521.63;5066583;28;20237;-71
2022/08/08 02:24:13;;;;;;;2.13;1.53;;;;;;;14.83;64.95;98521.16;5070615;28;20285;-69
2022/08/08 02:26:49;;;;;;;1.50;1.40;;;;;;;14.85;65.00;98527.22;5067718;28;20211;-69
2022/08/08 02:29:31;;;;;;;3.10;1.70;;;;;;;14.93;63.47;98520.31;5074639;28;20214;-69
2022/08/08 02:32:23;;;;;;;1.57;1.37;;;;;;;15.03;62.58;98520.44;5071172;28;20207;-69
2022/08/08 02:35:34;;;;;;;1.77;1.30;;;;;;;15.02;63.08;98521.41;5072417;28;20216;-69
2022/08/08 02:38:39;;;;;;;1.50;1.40;;;;;;;15.00;63.31;98520.66;5072332;28;20215;-69
2022/08/08 02:41:44;;;;;;;2.43;1.50;;;;;;;14.96;63.41;98519.22;5074066;28;20214;-69
2022/08/08 02:44:46;;;;;;;1.60;1.50;;;;;;;14.96;63.19;98513.91;5067597;28;20237;-69
2022/08/08 02:47:53;;;;;;;1.53;1.40;;;;;;;14.93;63.78;98511.47;5071750;28;20305;-71
2022/08/08 02:50:58;;;;;;;2.30;1.63;;;;;;;14.93;64.67;98514.13;5067813;28;20230;-70
2022/08/08 02:53:51;;;;;;;1.50;1.20;;;;;;;14.93;65.98;98514.13;5069098;28;20215;-69
2022/08/08 02:56:47;;;;;;;1.50;1.40;;;;;;;14.83;67.06;98515.84;5067939;28;20207;-70
2022/08/08 02:59:57;;;;;;;1.90;1.70;;;;;;;14.76;66.98;98509.31;5064085;28;20238;-69
2022/08/08 03:02:57;;;;;;;1.57;1.47;;;;;;;14.70;66.70;98517.78;5067832;28;20212;-69
2022/08/08 03:05:39;;;;;;;1.90;1.57;;;;;;;14.52;68.28;98520.09;5070234;28;20213;-69
2022/08/08 03:08:48;;;;;;;1.60;1.50;;;;;;;14.45;68.16;98528.69;5073967;28;20215;-69
2022/08/08 03:12:07;;;;;;;1.50;1.40;;;;;;;14.20;69.96;98531.56;5070101;28;20211;-69
2022/08/08 03:15:02;;;;;;;1.57;1.47;;;;;;;14.10;70.40;98533.19;5072252;28;20215;-70
2022/08/08 03:17:36;;;;;;;2.03;1.83;;;;;;;13.97;71.89;98543.06;5073620;28;20215;-69
2022/08/08 03:20:04;;;;;;;1.60;1.50;;;;;;;13.91;71.50;98541.75;5073159;28;20308;-70
2022/08/08 03:22:30;;;;;;;1.67;1.57;;;;;;;13.80;71.74;98556.78;5073229;28;20672;-74
2022/08/08 03:24:58;;;;;;;3.03;1.97;;;;;;;13.56;73.27;98548.84;5073667;28;20222;-70
2022/08/08 03:27:30;;;;;;;1.77;1.60;;;;;;;13.49;73.52;98546.75;5071787;28;20211;-70
2022/08/08 03:30:02;;;;;;;2.53;2.00;;;;;;;13.36;74.68;98557.44;5073315;28;20233;-70
2022/08/08 03:35:13;;;;;;;2.10;1.90;;;;;;;13.23;76.83;98554.00;5073061;28;20288;-70
2022/08/08 03:37:40;;;;;;;2.73;1.90;;;;;;;13.13;78.28;98550.31;5073377;28;20219;-71
2022/08/08 03:40:08;;;;;;;2.83;1.97;;;;;;;12.97;80.95;98554.19;5072896;28;20718;-71
2022/08/08 03:42:36;;;;;;;2.60;2.40;;;;;;;12.95;81.65;98548.13;5068155;28;20211;-71
2022/08/08 03:45:13;;;;;;;2.70;1.73;;;;;;;12.92;82.24;98551.00;5073003;28;20220;-71
2022/08/08 03:47:39;;;;;;;3.43;2.17;;;;;;;12.86;83.61;98552.28;5072941;28;20292;-71
2022/08/08 03:50:15;;;;;;;2.87;1.67;;;;;;;12.91;82.83;98554.59;5072676;28;20700;-71
2022/08/08 03:52:42;;;;;;;2.13;1.67;;;;;;;12.89;82.87;98552.06;5073178;28;20554;-70
2022/08/08 03:55:10;;;;;;;2.10;1.80;;;;;;;12.84;83.43;98554.19;5071104;28;20302;-70
2022/08/08 03:57:37;;;;;;;1.97;1.87;;;;;;;12.84;83.04;98569.28;5073011;28;20212;-70
2022/08/08 04:00:09;;;;;;;1.80;1.70;;;;;;;12.86;82.79;98564.69;5072882;28;20247;-70
2022/08/08 04:02:35;;;;;;;3.33;1.80;;;;;;;12.86;82.50;98567.34;5073049;28;20292;-70
2022/08/08 04:05:04;;;;;;;2.63;2.00;;;;;;;12.85;82.64;98576.28;5073124;28;20221;-70
2022/08/08 04:07:35;;;;;;;2.37;1.70;;;;;;;12.87;82.92;98572.56;5072558;28;20692;-70
2022/08/08 04:10:02;;;;;;;2.67;1.83;;;;;;;12.89;82.63;98580.41;5072608;28;20211;-70
2022/08/08 04:12:30;;;;;;;2.13;1.93;;;;;;;12.88;83.28;98576.91;5072641;28;20215;-69
2022/08/08 04:14:56;;;;;;;2.03;1.83;;;;;;;12.88;82.99;98582.19;5072631;28;20216;-69
2022/08/08 04:17:23;;;;;;;1.87;1.77;;;;;;;12.92;82.46;98578.38;5072765;28;20577;-70
2022/08/08 04:19:49;;;;;;;1.70;1.60;;;;;;;12.98;82.19;98577.13;5070394;28;20255;-70
2022/08/08 04:22:16;;;;;;;2.00;1.80;;;;;;;13.04;82.13;98582.84;5072770;28;20211;-70
2022/08/08 04:24:42;;;;;;;1.80;1.70;;;;;;;13.08;81.72;98583.47;5072790;28;20241;-70
2022/08/08 04:27:09;;;;;;;1.77;1.67;;;;;;;13.10;82.60;98589.50;5072544;28;20211;-70
2022/08/08 04:29:37;;;;;;;1.90;1.80;;;;;;;13.04;82.88;98598.78;5072491;28;20222;-70
2022/08/08 04:32:04;;;;;;;2.87;1.87;;;;;;;13.04;83.52;98592.59;5072666;28;20215;-70
2022/08/08 04:34:31;;;;;;;2.00;1.77;;;;;;;13.07;83.44;98592.41;5072206;28;20218;-69
2022/08/08 04:36:57;;;;;;;2.70;1.87;;;;;;;13.20;82.44;98599.34;5072513;28;20217;-69
2022/08/08 04:39:24;;;;;;;1.90;1.80;;;;;;;13.26;82.17;98600.72;5072112;28;20603;-70
2022/08/08 04:41:50;;;;;;;2.13;1.70;;;;;;;13.24;83.02;98605.28;5072344;28;20245;-71
2022/08/08 04:44:17;;;;;;;2.43;2.23;;;;;;;13.28;82.70;98606.75;5072399;28;20215;-69
2022/08/08 04:46:45;;;;;;;2.30;2.03;;;;;;;13.32;82.09;98608.25;5070250;28;20215;-69
2022/08/08 04:49:12;;;;;;;1.90;1.70;;;;;;;13.36;81.65;98615.88;5072002;28;20211;-69
2022/08/08 04:51:38;;;;;;;2.37;1.70;;;;;;;13.43;81.65;98624.22;5071560;28;20215;-69
2022/08/08 04:54:05;;;;;;;1.70;1.60;;;;;;;13.45;81.95;98622.31;5070554;28;20219;-69
2022/08/08 04:56:31;;;;;;;1.90;1.70;;;;;;;13.59;81.67;98630.13;5070609;28;20215;-70
2022/08/08 04:58:58;;;;;;;3.33;1.90;;;;;;;13.71;80.95;98615.94;5068599;28;20234;-70
2022/08/08 05:01:24;;;;;;;4.67;1.87;;;;;;;13.80;80.66;98620.53;5070659;28;20247;-70
2022/08/08 05:03:52;;;;;;;1.70;1.60;;;;;;;13.89;80.40;98627.84;5070964;28;20215;-71
2022/08/08 05:06:19;;;;;;;2.87;2.00;;;;;;;14.03;80.29;98625.00;5070742;28;20214;-68
2022/08/08 05:08:47;;;;;;;1.97;1.60;;;;;;;14.21;79.51;98626.28;5070551;28;20697;-68
2022/08/08 05:11:13;;;;;;;2.40;2.10;;;;;;;14.40;79.27;98626.59;5070571;28;20219;-68
2022/08/08 05:13:40;;;;;;;2.43;2.10;;;;;;;14.58;77.61;98625.16;5060519;28;20222;-70
2022/08/08 05:16:07;;;;;;;2.43;1.90;;;;;;;14.62;77.88;98630.16;5070589;28;20219;-70
2022/08/08 05:18:35;;;;;;;3.07;2.00;;;;;;;14.68;78.72;98632.34;5070710;28;20211;-70
2022/08/08 05:21:03;;;;;;;2.40;2.20;;;;;;;14.89;77.04;98635.13;5070326;28;20255;-70
2022/08/08 05:23:30;;;;;;;3.07;2.20;;;;;;;15.03;76.03;98626.91;5062387;28;20560;-70
2022/08/08 05:25:56;;;;;;;2.53;2.20;;;;;;;15.18;75.13;98626.53;5070547;28;20591;-69
2022/08/08 05:28:23;;;;;;;2.30;2.10;;;;;;;15.34;75.20;98631.50;5070665;28;20306;-69
2022/08/08 05:30:49;;;;;;;2.13;1.93;;;;;;;15.48;74.70;98639.22;5070732;28;20234;-69
2022/08/08 05:33:16;;;;;;;2.63;2.20;;;;;;;15.66;74.43;98643.06;5070650;28;20219;-69
2022/08/08 05:35:43;;;;;;;2.43;2.13;;;;;;;15.82;73.17;98644.34;5070720;28;20222;-69
2022/08/08 05:38:14;;;;;;;3.50;1.90;;;;;;;16.02;72.02;98650.69;5070372;28;20249;-69
2022/08/08 05:40:45;;;;;;;2.27;2.07;;;;;;;16.22;72.02;98643.56;5069248;28;20235;-69
2022/08/08 05:43:21;;;;;;;1.97;1.77;;;;;;;16.81;69.27;98647.38;5070437;28;20216;-68
2022/08/08 05:45:48;;;;;;;2.00;1.80;;;;;;;17.76;63.05;98637.09;5070294;28;20212;-68
2022/08/08 05:48:17;;;;;;;3.07;1.90;;;;;;;18.54;59.50;98637.78;5070349;28;20215;-68
2022/08/08 05:50:44;;;;;;;3.10;1.57;;;;;;;19.36;57.13;98642.38;5070551;28;20211;-68
2022/08/08 05:53:12;;;;;;;1.97;1.83;;;;;;;20.28;54.06;98644.78;5070602;28;20250;-68
2022/08/08 05:55:43;;;;;;;2.50;2.30;;;;;;;21.06;52.05;98642.06;5070172;28;20216;-68
2022/08/08 05:58:12;;;;;;;2.10;1.90;;;;;;;21.66;49.95;98640.13;5072802;28;20227;-70
2022/08/08 06:00:39;;;;;;;1.87;1.77;;;;;;;22.29;48.58;98644.88;5073863;28;20292;-71
2022/08/08 06:03:13;;;;;;;1.93;1.77;;;;;;;22.86;47.03;98649.25;5073941;28;20221;-70
2022/08/08 06:05:45;;;;;;;2.30;2.03;;;;;;;23.43;46.06;98645.47;5070755;28;20228;-67
2022/08/08 06:08:14;;;;;;;2.23;2.03;;;;;;;23.90;45.27;98651.69;5072352;28;20215;-66
2022/08/08 06:10:41;;;;;;;2.20;2.00;;;;;;;24.29;43.95;98648.94;5072209;28;20223;-69
2022/08/08 06:13:09;;;;;;;1.70;1.60;;;;;;;24.71;43.59;98652.00;5072542;28;20219;-68
2022/08/08 06:15:36;;;;;;;2.70;2.20;;;;;;;25.02;42.87;98656.28;5070296;28;20650;-67
2022/08/08 06:18:03;;;;;;;3.33;2.17;;;;;;;25.36;42.37;98648.50;5062144;28;20382;-69
2022/08/08 06:20:30;;;;;;;2.17;1.90;;;;;;;25.66;42.15;98650.19;5071228;28;20254;-69
2022/08/08 06:22:57;;;;;;;2.17;1.50;;;;;;;26.00;41.43;98657.72;5074385;28;20215;-69
2022/08/08 06:25:25;;;;;;;4.63;2.20;;;;;;;26.21;40.51;98658.59;5062262;28;20212;-71
2022/08/08 06:27:54;;;;;;;3.90;2.03;;;;;;;26.35;40.02;98665.88;5068425;28;20268;-70
2022/08/08 06:30:21;;;;;;;2.10;1.87;;;;;;;26.46;40.11;98661.81;5074429;28;20219;-70
2022/08/08 06:32:50;;;;;;;18.27;2.20;;;;;;;26.51;40.09;98668.31;5073709;28;20227;-70
2022/08/08 06:35:17;;;;;;;1.93;1.77;;;;;;;26.59;39.96;98662.78;5072818;28;20210;-70
2022/08/08 06:37:46;;;;;;;1.93;1.80;;;;;;;26.64;39.79;98673.09;5074184;28;20218;-70
2022/08/08 06:40:14;;;;;;;1.97;1.87;;;;;;;26.62;39.53;98672.41;5074064;28;20231;-73
2022/08/08 06:42:48;;;;;;;4.03;2.20;;;;;;;26.25;40.34;98680.75;5074762;28;20285;-74
2022/08/08 06:45:15;;;;;;;2.63;2.00;;;;;;;25.56;40.95;98681.28;5072382;28;20647;-69
2022/08/08 06:47:42;;;;;;;2.10;1.90;;;;;;;24.44;43.55;98691.22;5073685;28;20221;-69
2022/08/08 06:50:09;;;;;;;2.10;2.00;;;;;;;23.18;45.84;98681.63;5074831;28;20226;-69
2022/08/08 06:52:37;;;;;;;2.60;1.80;;;;;;;22.33;48.00;98681.25;5074751;28;20626;-70
2022/08/08 06:55:05;;;;;;;2.50;2.20;;;;;;;21.78;49.21;98687.31;5076341;28;20215;-72
2022/08/08 06:57:33;;;;;;;2.47;1.93;;;;;;;21.45;50.60;98688.16;5074334;28;20915;-70
2022/08/08 07:00:01;;;;;;;2.40;2.20;;;;;;;21.20;50.84;98687.16;5071838;28;20223;-69
2022/08/08 07:02:32;;;;;;;2.27;1.90;;;;;;;21.04;51.41;98696.97;5075132;28;20641;-68
2022/08/08 07:05:04;;;;;;;2.77;2.50;;;;;;;20.90;51.88;98689.47;5075192;28;20225;-67
2022/08/08 07:07:41;;;;;;;3.47;2.33;;;;;;;20.74;52.04;98692.84;5073149;28;20333;-69
2022/08/08 07:10:09;;;;;;;3.20;2.20;;;;;;;20.62;53.11;98698.63;5071201;28;20776;-67
2022/08/08 07:12:40;;;;;;;4.27;2.57;;;;;;;20.58;53.31;98699.91;5076397;28;20203;-69
2022/08/08 07:15:11;;;;;;;3.63;2.10;;;;;;;20.55;53.33;98695.69;5073237;28;20371;-69
2022/08/08 07:17:45;;;;;;;3.97;2.50;;;;;;;20.55;53.54;98689.50;5057351;28;20595;-73
2022/08/08 07:20:18;;;;;;;2.60;2.40;;;;;;;20.49;53.90;98693.63;5067781;28;20284;-72
2022/08/08 07:22:53;;;;;;;4.57;2.83;;;;;;;20.58;54.38;98690.03;5073281;28;20556;-68
2022/08/08 07:25:20;;;;;;;3.17;2.10;;;;;;;20.69;53.98;98687.09;5070382;28;20691;-69
2022/08/08 07:27:50;;;;;;;4.27;2.53;;;;;;;20.85;53.94;98686.38;5068774;28;20247;-72
2022/08/08 07:30:18;;;;;;;2.60;2.40;;;;;;;20.90;54.06;98687.63;5070102;28;20572;-70
2022/08/08 07:32:47;;;;;;;2.57;2.37;;;;;;;20.94;54.13;98686.31;5070587;28;20298;-69
2022/08/08 07:35:15;;;;;;;4.43;2.37;;;;;;;21.00;54.51;98691.06;5069050;28;20211;-71
2022/08/08 07:37:44;;;;;;;3.37;2.60;;;;;;;21.14;54.69;98692.31;5069409;28;20560;-68
2022/08/08 07:40:14;;;;;;;2.50;2.30;;;;;;;21.32;55.36;98690.41;5070258;28;20230;-70
2022/08/08 07:42:42;;;;;;;2.53;2.33;;;;;;;21.49;54.02;98693.03;5070451;28;20738;-70
2022/08/08 07:45:10;;;;;;;3.70;2.70;;;;;;;21.61;53.79;98690.91;5069704;28;20207;-72
2022/08/08 07:47:38;;;;;;;2.53;2.30;;;;;;;21.70;54.33;98695.34;5070139;28;20708;-70
2022/08/08 07:50:05;;;;;;;2.83;2.10;;;;;;;21.78;53.17;98692.69;5069789;28;20207;-70
2022/08/08 07:52:32;;;;;;;2.60;2.40;;;;;;;21.94;53.40;98698.16;5071811;28;20212;-69
2022/08/08 07:55:04;;;;;;;3.67;2.53;;;;;;;22.09;53.43;98702.72;5070209;28;20519;-70
2022/08/08 07:57:40;;;;;;;2.93;2.63;;;;;;;22.09;53.11;98696.50;5071983;28;20213;-70
2022/08/08 08:00:09;;;;;;;2.70;2.43;;;;;;;22.24;53.20;98705.63;5071158;28;20214;-70
2022/08/08 08:02:42;;;;;;;3.50;2.87;;;;;;;22.36;53.45;98702.44;5071478;28;20220;-69
2022/08/08 08:05:19;;;;;;;3.00;2.67;;;;;;;22.47;52.26;98701.31;5071485;28;20207;-70
2022/08/08 08:07:49;;;;;;;2.70;2.50;;;;;;;22.54;52.39;98705.88;5069796;28;20210;-70
2022/08/08 08:10:17;;;;;;;2.70;2.50;;;;;;;22.63;52.01;98721.06;5071528;28;20208;-70
2022/08/08 08:12:51;;;;;;;3.10;2.77;;;;;;;22.63;51.34;98715.66;5071593;28;20265;-70
2022/08/08 08:15:19;;;;;;;2.60;2.30;;;;;;;22.65;51.59;98716.31;5069163;28;20681;-71
2022/08/08 08:17:50;;;;;;;2.50;2.30;;;;;;;22.82;51.35;98707.25;5071562;28;20215;-70
2022/08/08 08:20:18;;;;;;;2.43;2.33;;;;;;;22.85;51.26;98708.75;5068876;28;20239;-70
2022/08/08 08:22:45;;;;;;;2.57;2.10;;;;;;;22.85;51.47;98711.47;5071099;28;20219;-70
2022/08/08 08:25:11;;;;;;;3.13;2.80;;;;;;;22.94;50.65;98707.72;5071021;28;20700;-69
2022/08/08 08:27:38;;;;;;;2.63;2.43;;;;;;;22.99;50.89;98708.91;5069365;28;20207;-65
2022/08/08 08:30:05;;;;;;;2.63;2.40;;;;;;;23.12;50.04;98701.16;5069816;28;20712;-62
2022/08/08 08:32:32;;;;;;;2.77;2.30;;;;;;;23.26;50.41;98711.28;5070909;28;20214;-65
2022/08/08 08:35:00;;;;;;;2.70;2.50;;;;;;;23.47;50.04;98710.72;5070883;28;20211;-64
2022/08/08 08:37:27;;;;;;;3.47;2.30;;;;;;;23.68;49.38;98710.97;5069201;28;20352;-65
2022/08/08 08:39:53;;;;;;;2.30;2.10;;;;;;;23.77;49.70;98710.78;5068584;28;20207;-65
2022/08/08 08:42:21;;;;;;;2.67;2.47;;;;;;;23.92;49.56;98709.09;5069559;28;20235;-65
2022/08/08 08:44:49;;;;;;;3.00;2.70;;;;;;;24.08;48.52;98703.56;5065193;28;20716;-65
2022/08/08 08:47:17;;;;;;;3.47;2.33;;;;;;;24.14;47.81;98705.56;5056547;28;20216;-66
2022/08/08 08:49:44;;;;;;;2.30;2.10;;;;;;;24.07;47.54;98707.31;5069522;28;20215;-65
2022/08/08 08:52:16;;;;;;;2.50;2.30;;;;;;;24.03;47.73;98711.38;5076211;28;20207;-65
2022/08/08 08:54:44;;;;;;;2.90;2.20;;;;;;;24.20;47.81;98707.56;5079855;28;20237;-61
2022/08/08 08:57:10;;;;;;;2.67;2.33;;;;;;;24.45;47.00;98710.97;5070560;28;20212;-64
2022/08/08 08:59:41;;;;;;;2.33;2.13;;;;;;;24.56;47.06;98708.69;5084430;28;20215;-64
2022/08/08 09:02:18;;;;;;;3.90;2.00;;;;;;;24.63;46.63;98709.69;5085868;28;20265;-65
2022/08/08 09:04:47;;;;;;;2.83;2.50;;;;;;;24.65;46.42;98707.66;5084864;28;20216;-64
2022/08/08 09:07:18;;;;;;;2.50;2.30;;;;;;;24.82;46.11;98706.50;5082624;28;20214;-64
2022/08/08 09:09:48;;;;;;;3.53;2.00;;;;;;;24.92;46.73;98714.38;5085968;28;20210;-67
2022/08/08 09:12:17;;;;;;;2.63;2.00;;;;;;;25.02;46.72;98713.09;5085981;28;20210;-68
2022/08/08 09:14:44;;;;;;;2.40;2.20;;;;;;;25.19;45.34;98711.09;5076317;28;20207;-65
2022/08/08 09:17:12;;;;;;;2.20;2.00;;;;;;;25.27;45.27;98711.03;5077526;28;20222;-66
2022/08/08 09:19:39;;;;;;;2.63;2.00;;;;;;;25.31;44.42;98707.75;5076132;28;20242;-65
2022/08/08 09:22:06;;;;;;;2.23;2.00;;;;;;;25.30;44.30;98706.09;5085200;28;20741;-64
2022/08/08 09:24:35;;;;;;;2.93;2.37;;;;;;;25.10;44.84;98704.91;5083219;28;20660;-68
2022/08/08 09:27:07;;;;;;;3.08;2.40;;;;;;;25.09;44.17;98702.38;5083340;28;20215;-63
2022/08/08 09:29:47;;;;;;;2.60;2.40;;;;;;;25.16;44.13;98701.47;5085010;28;20433;-64
2022/08/08 09:32:17;;;;;;;2.33;1.93;;;;;;;25.28;44.98;98705.44;5087343;28;20671;-64
2022/08/08 09:34:49;;;;;;;2.30;2.10;;;;;;;25.45;44.31;98698.84;5086152;28;20242;-65
2022/08/08 09:37:18;;;;;;;2.50;2.30;;;;;;;25.42;43.74;98696.47;5089638;28;20219;-67
2022/08/08 09:39:59;;;;;;;2.40;2.20;;;;;;;25.48;42.88;98692.22;5082030;28;20208;-63
2022/08/08 09:42:32;;;;;;;2.07;1.97;;;;;;;25.48;44.19;98692.22;5080975;28;20235;-66
2022/08/08 09:45:04;;;;;;;2.60;2.40;;;;;;;25.70;42.18;98699.38;5066697;28;20471;-68
2022/08/08 09:47:33;;;;;;;2.50;2.13;;;;;;;25.64;43.43;98697.41;5089356;28;20218;-63
2022/08/08 09:50:04;;;;;;;2.58;2.38;;;;;;;25.76;43.04;98699.50;5087877;28;20211;-62
2022/08/08 09:52:33;;;;;;;2.60;2.40;;;;;;;25.87;42.68;98685.47;5084144;28;20219;-65
2022/08/08 09:55:02;;;;;;;2.37;2.10;;;;;;;25.88;43.30;98691.72;5088612;28;20210;-65
2022/08/08 09:57:33;;;;;;;3.23;2.30;;;;;;;26.02;43.19;98689.03;5085662;28;20211;-64
2022/08/08 10:00:00;;;;;;;2.70;2.25;;;;;;;26.22;42.74;98690.09;5085762;28;20348;-65
2022/08/08 10:02:35;;;;;;;2.47;2.28;;;;;;;26.40;42.16;98685.09;5086074;28;20241;-65
2022/08/08 10:05:07;;;;;;;2.30;2.10;;;;;;;26.58;41.55;98682.81;5071207;28;20302;-64
2022/08/08 10:07:34;;;;;;;2.10;2.00;;;;;;;26.69;41.47;98687.72;5062858;28;20717;-63
2022/08/08 10:10:03;;;;;;;2.72;2.10;;;;;;;26.83;41.53;98681.38;5075639;28;20217;-65
2022/08/08 10:12:36;;;;;;;2.83;2.10;;;;;;;26.93;39.71;98673.75;5074835;28;20211;-66
2022/08/08 10:15:05;;;;;;;2.40;2.20;;;;;;;26.75;39.96;98673.38;5075957;28;20207;-64
2022/08/08 10:17:33;;;;;;;2.47;2.28;;;;;;;26.53;40.32;98677.13;5072992;28;20585;-63
2022/08/08 10:20:02;;;;;;;2.50;2.30;;;;;;;26.35;40.55;98676.72;5074939;28;20235;-61
2022/08/08 10:22:29;;;;;;;2.92;2.30;;;;;;;26.44;40.61;98678.25;5075662;28;20300;-62
2022/08/08 10:25:02;;;;;;;2.40;2.20;;;;;;;26.63;40.58;98671.41;5072518;28;20585;-65
2022/08/08 10:27:40;;;;;;;2.97;2.10;;;;;;;26.81;40.54;98659.03;5076298;28;20253;-66
2022/08/08 10:30:08;;;;;;;2.42;2.13;;;;;;;27.09;40.07;98668.06;5075683;28;20260;-65
2022/08/08 10:32:40;;;;;;;2.30;2.03;;;;;;;27.10;38.97;98665.13;5075632;28;20215;-65
2022/08/08 10:35:12;;;;;;;2.10;1.90;;;;;;;27.36;39.54;98658.28;5075644;28;20211;-62
2022/08/08 10:37:49;;;;;;;2.22;2.03;;;;;;;27.56;38.29;98668.19;5074227;28;20215;-64
2022/08/08 10:40:16;;;;;;;2.00;1.90;;;;;;;27.58;37.11;98663.41;5075014;28;20234;-63
2022/08/08 10:42:47;;;;;;;3.47;2.15;;;;;;;27.43;36.99;98657.25;5074805;28;20239;-63
2022/08/08 10:45:14;;;;;;;2.47;2.28;;;;;;;27.33;37.08;98660.31;5076366;28;20214;-64
2022/08/08 10:47:42;;;;;;;1.90;1.80;;;;;;;27.20;38.17;98651.25;5075206;28;20234;-63
2022/08/08 10:50:09;;;;;;;2.40;2.20;;;;;;;26.98;37.81;98654.16;5074455;28;20239;-63
2022/08/08 10:52:37;;;;;;;2.00;1.80;;;;;;;26.86;37.25;98658.44;5076412;28;20211;-65
2022/08/08 10:55:06;;;;;;;1.98;1.70;;;;;;;26.69;36.57;98666.03;5076055;28;20694;-63
2022/08/08 10:57:37;;;;;;;1.85;1.75;;;;;;;26.49;36.11;98659.56;5073847;28;20641;-63
2022/08/08 11:00:08;;;;;;;2.35;1.30;;;;;;;26.37;36.26;98669.22;5074925;28;20223;-63
2022/08/08 11:02:35;;;;;;;1.70;1.60;;;;;;;26.43;35.68;98654.91;5075937;28;20278;-63
2022/08/08 11:05:04;;;;;;;1.63;1.52;;;;;;;26.38;36.04;98657.34;5057143;28;20203;-63
2022/08/08 11:07:32;;;;;;;1.38;1.27;;;;;;;26.45;35.68;98657.44;5061493;28;20208;-63
2022/08/08 11:10:01;;;;;;;1.95;1.40;;;;;;;26.53;34.39;98649.16;5066041;28;20219;-64
2022/08/08 11:12:28;;;;;;;1.70;1.60;;;;;;;26.63;35.03;98653.25;5070851;28;20584;-66
2022/08/08 11:14:56;;;;;;;1.60;1.50;;;;;;;26.74;34.61;98641.03;5071402;28;20223;-64
2022/08/08 11:17:27;;;;;;;1.55;1.45;;;;;;;26.89;34.81;98645.34;5071187;28;20216;-63
2022/08/08 11:19:54;;;;;;;1.58;1.40;;;;;;;27.18;34.44;98633.50;5070657;28;20239;-64
2022/08/08 11:22:25;;;;;;;1.58;1.48;;;;;;;27.47;35.38;98634.09;5071200;28;20727;-62
2022/08/08 11:24:58;;;;;;;1.52;1.42;;;;;;;27.72;34.90;98638.00;5071939;28;20211;-62
2022/08/08 11:27:27;;;;;;;2.03;1.60;;;;;;;27.73;35.34;98639.66;5070286;28;20211;-63
2022/08/08 11:29:57;;;;;;;2.25;1.60;;;;;;;27.84;34.61;98630.97;5069644;28;20211;-63
2022/08/08 11:32:26;;;;;;;4.68;1.80;;;;;;;27.97;34.40;98636.47;5069810;28;20226;-63
2022/08/08 11:34:56;;;;;;;1.90;1.80;;;;;;;27.88;34.54;98630.34;5070471;28;20218;-63
2022/08/08 11:37:23;;;;;;;1.85;1.75;;;;;;;27.91;35.25;98627.25;5071017;28;20589;-64
2022/08/08 11:39:50;;;;;;;1.90;1.80;;;;;;;27.90;34.55;98635.59;5071133;28;20207;-65
2022/08/08 11:42:17;;;;;;;1.80;1.70;;;;;;;28.02;34.32;98636.69;5070335;28;20250;-63
2022/08/08 11:44:45;;;;;;;1.65;1.55;;;;;;;27.97;33.29;98620.16;5071163;28;20234;-64
2022/08/08 11:47:12;;;;;;;3.15;1.83;;;;;;;27.92;33.81;98622.63;5070863;28;20269;-65
2022/08/08 11:49:41;;;;;;;2.45;1.88;;;;;;;27.93;33.39;98624.31;5069834;28;20211;-67
2022/08/08 11:52:08;;;;;;;1.88;1.77;;;;;;;28.23;33.94;98625.66;5071223;28;20576;-67
2022/08/08 11:54:35;;;;;;;2.20;2.00;;;;;;;28.17;34.13;98629.19;5070522;28;20541;-63
2022/08/08 11:57:10;;;;;;;1.70;1.60;;;;;;;28.16;33.53;98627.53;5068105;28;20212;-66
2022/08/08 11:59:44;;;;;;;1.88;1.70;;;;;;;27.96;33.50;98629.34;5070657;28;20594;-67
2022/08/08 12:02:11;;;;;;;2.33;1.70;;;;;;;27.83;33.57;98624.69;5060864;28;20292;-64
2022/08/08 12:04:38;;;;;;;1.83;1.70;;;;;;;27.95;33.56;98623.06;5067002;28;20233;-63
2022/08/08 12:07:06;;;;;;;1.95;1.73;;;;;;;28.07;32.59;98620.63;5069910;28;20280;-63
2022/08/08 12:09:34;;;;;;;1.60;1.50;;;;;;;27.99;33.05;98612.63;5057475;28;20211;-63